sensor_id;sensor_type;location;lat;lon;timestamp;pressure;altitude;pressure_sealevel;temperature;humidity
15477;BME280;7840;42.702;23.296;2022-11-20T00:01:37;94341.56;;;17.28;82.72
15477;BME280;7840;42.702;23.296;2022-11-20T00:04:04;94347.38;;;17.53;80.98
15477;BME280;7840;42.702;23.296;2022-11-20T00:06:32;94332.16;;;17.70;79.95
15477;BME280;7840;42.702;23.296;2022-11-20T00:09:00;94328.34;;;17.63;80.48
15477;BME280;7840;42.702;23.296;2022-11-20T00:11:30;94325.06;;;17.35;85.36
15477;BME280;7840;42.702;23.296;2022-11-20T00:14:00;94341.81;;;17.18;88.06
15477;BME280;7840;42.702;23.296;2022-11-20T00:16:32;94340.97;;;17.31;84.08
15477;BME280;7840;42.702;23.296;2022-11-20T00:19:00;94338.84;;;17.73;79.01
15477;BME280;7840;42.702;23.296;2022-11-20T00:21:28;94316.41;;;18.09;76.06
15477;BME280;7840;42.702;23.296;2022-11-20T00:23:57;94326.25;;;18.39;72.60
15477;BME280;7840;42.702;23.296;2022-11-20T00:26:26;94333.03;;;18.37;72.11
15477;BME280;7840;42.702;23.296;2022-11-20T00:28:56;94304.00;;;18.39;71.71
15477;BME280;7840;42.702;23.296;2022-11-20T00:31:28;94328.63;;;18.58;69.54
15477;BME280;7840;42.702;23.296;2022-11-20T00:33:56;94317.78;;;18.72;68.40
15477;BME280;7840;42.702;23.296;2022-11-20T00:36:41;94326.00;;;18.67;68.12
15477;BME280;7840;42.702;23.296;2022-11-20T00:39:10;94322.94;;;18.59;69.31
15477;BME280;7840;42.702;23.296;2022-11-20T00:41:43;94310.03;;;18.53;69.16
15477;BME280;7840;42.702;23.296;2022-11-20T00:44:10;94323.75;;;18.86;67.11
15477;BME280;7840;42.702;23.296;2022-11-20T00:46:40;94343.03;;;18.88;66.84
15477;BME280;7840;42.702;23.296;2022-11-20T00:49:09;94304.22;;;18.94;66.45
15477;BME280;7840;42.702;23.296;2022-11-20T00:51:53;94338.44;;;18.97;66.83
15477;BME280;7840;42.702;23.296;2022-11-20T00:54:22;94335.75;;;18.97;66.31
15477;BME280;7840;42.702;23.296;2022-11-20T00:56:52;94329.47;;;19.02;65.97
15477;BME280;7840;42.702;23.296;2022-11-20T00:59:20;94313.16;;;19.07;65.93
15477;BME280;7840;42.702;23.296;2022-11-20T01:01:50;94305.91;;;18.99;65.88
15477;BME280;7840;42.702;23.296;2022-11-20T01:04:19;94309.88;;;19.01;66.33
15477;BME280;7840;42.702;23.296;2022-11-20T01:06:47;94319.50;;;18.94;66.31
15477;BME280;7840;42.702;23.296;2022-11-20T01:09:15;94331.97;;;19.16;65.03
15477;BME280;7840;42.702;23.296;2022-11-20T01:11:58;94290.88;;;19.24;64.75
15477;BME280;7840;42.702;23.296;2022-11-20T01:14:40;94289.78;;;19.16;66.51
15477;BME280;7840;42.702;23.296;2022-11-20T01:17:09;94292.47;;;19.07;66.97
15477;BME280;7840;42.702;23.296;2022-11-20T01:19:37;94306.25;;;18.97;67.24
15477;BME280;7840;42.702;23.296;2022-11-20T01:22:05;94287.94;;;18.91;67.78
15477;BME280;7840;42.702;23.296;2022-11-20T01:24:33;94317.47;;;18.82;67.82
15477;BME280;7840;42.702;23.296;2022-11-20T01:27:00;94264.75;;;18.69;68.04
15477;BME280;7840;42.702;23.296;2022-11-20T01:29:30;94296.59;;;18.62;68.68
15477;BME280;7840;42.702;23.296;2022-11-20T01:31:57;94298.66;;;18.65;68.30
15477;BME280;7840;42.702;23.296;2022-11-20T01:34:29;94293.94;;;18.70;68.22
15477;BME280;7840;42.702;23.296;2022-11-20T01:37:00;94256.19;;;18.58;68.26
15477;BME280;7840;42.702;23.296;2022-11-20T01:39:27;94284.00;;;18.53;69.11
15477;BME280;7840;42.702;23.296;2022-11-20T01:42:13;94268.22;;;18.78;66.72
15477;BME280;7840;42.702;23.296;2022-11-20T01:44:59;94281.78;;;18.81;66.39
15477;BME280;7840;42.702;23.296;2022-11-20T01:47:48;94268.88;;;18.75;66.14
15477;BME280;7840;42.702;23.296;2022-11-20T01:50:22;94265.22;;;18.71;66.85
15477;BME280;7840;42.702;23.296;2022-11-20T01:52:58;94290.94;;;18.72;65.87
15477;BME280;7840;42.702;23.296;2022-11-20T01:55:45;94301.97;;;18.79;65.31
15477;BME280;7840;42.702;23.296;2022-11-20T01:58:16;94302.28;;;18.86;64.94
15477;BME280;7840;42.702;23.296;2022-11-20T02:00:46;94297.88;;;18.90;65.60
15477;BME280;7840;42.702;23.296;2022-11-20T02:03:17;94309.88;;;18.84;66.04
15477;BME280;7840;42.702;23.296;2022-11-20T02:05:50;94298.66;;;18.99;64.68
15477;BME280;7840;42.702;23.296;2022-11-20T02:08:20;94283.03;;;19.01;64.30
15477;BME280;7840;42.702;23.296;2022-11-20T02:10:55;94289.69;;;18.95;64.46
15477;BME280;7840;42.702;23.296;2022-11-20T02:13:24;94312.84;;;19.00;64.70
15477;BME280;7840;42.702;23.296;2022-11-20T02:16:21;94307.03;;;18.89;65.62
15477;BME280;7840;42.702;23.296;2022-11-20T02:18:50;94273.88;;;18.85;65.06
15477;BME280;7840;42.702;23.296;2022-11-20T02:21:27;94306.25;;;18.80;66.08
15477;BME280;7840;42.702;23.296;2022-11-20T02:24:06;94222.88;;;18.94;64.21
15477;BME280;7840;42.702;23.296;2022-11-20T02:26:50;94291.84;;;19.10;63.21
15477;BME280;7840;42.702;23.296;2022-11-20T02:29:24;94300.38;;;19.12;63.57
15477;BME280;7840;42.702;23.296;2022-11-20T02:31:55;94293.59;;;18.98;64.59
15477;BME280;7840;42.702;23.296;2022-11-20T02:34:24;94284.31;;;18.95;64.45
15477;BME280;7840;42.702;23.296;2022-11-20T02:36:52;94260.94;;;18.87;65.66
15477;BME280;7840;42.702;23.296;2022-11-20T02:39:24;94297.88;;;18.90;65.56
15477;BME280;7840;42.702;23.296;2022-11-20T02:41:53;94309.88;;;18.84;65.77
15477;BME280;7840;42.702;23.296;2022-11-20T02:44:21;94317.78;;;18.72;66.54
15477;BME280;7840;42.702;23.296;2022-11-20T02:46:49;94296.13;;;18.85;66.01
15477;BME280;7840;42.702;23.296;2022-11-20T02:49:17;94312.41;;;18.89;66.45
15477;BME280;7840;42.702;23.296;2022-11-20T02:51:44;94309.56;;;18.77;67.67
15477;BME280;7840;42.702;23.296;2022-11-20T02:54:13;94313.38;;;18.67;68.70
15477;BME280;7840;42.702;23.296;2022-11-20T02:56:43;94323.31;;;18.67;70.08
15477;BME280;7840;42.702;23.296;2022-11-20T02:59:13;94333.53;;;18.47;71.49
15477;BME280;7840;42.702;23.296;2022-11-20T03:01:41;94325.31;;;18.52;72.01
15477;BME280;7840;42.702;23.296;2022-11-20T03:04:08;94336.03;;;18.52;71.97
15477;BME280;7840;42.702;23.296;2022-11-20T03:06:36;94346.94;;;18.47;72.28
15477;BME280;7840;42.702;23.296;2022-11-20T03:09:04;94337.28;;;18.38;72.98
15477;BME280;7840;42.702;23.296;2022-11-20T03:11:31;94362.84;;;18.35;74.70
15477;BME280;7840;42.702;23.296;2022-11-20T03:14:03;94355.56;;;18.27;75.22
15477;BME280;7840;42.702;23.296;2022-11-20T03:16:34;94347.03;;;18.25;75.34
15477;BME280;7840;42.702;23.296;2022-11-20T03:19:04;94355.84;;;18.17;76.80
15477;BME280;7840;42.702;23.296;2022-11-20T03:21:44;94355.81;;;18.08;77.79
15477;BME280;7840;42.702;23.296;2022-11-20T03:24:13;94351.44;;;18.21;76.82
15477;BME280;7840;42.702;23.296;2022-11-20T03:26:43;94350.00;;;18.15;78.38
15477;BME280;7840;42.702;23.296;2022-11-20T03:29:13;94334.38;;;17.99;78.06
15477;BME280;7840;42.702;23.296;2022-11-20T03:31:41;94353.53;;;17.84;79.94
15477;BME280;7840;42.702;23.296;2022-11-20T03:34:10;94355.81;;;17.99;77.33
15477;BME280;7840;42.702;23.296;2022-11-20T03:36:39;94369.22;;;18.08;76.28
15477;BME280;7840;42.702;23.296;2022-11-20T03:39:15;94340.41;;;18.14;75.09
15477;BME280;7840;42.702;23.296;2022-11-20T03:41:58;94378.38;;;18.16;75.32
15477;BME280;7840;42.702;23.296;2022-11-20T03:44:29;94361.50;;;18.07;75.57
15477;BME280;7840;42.702;23.296;2022-11-20T03:46:57;94374.69;;;17.94;77.92
15477;BME280;7840;42.702;23.296;2022-11-20T03:49:25;94358.59;;;17.86;79.05
15477;BME280;7840;42.702;23.296;2022-11-20T03:51:55;94374.94;;;17.84;79.61
15477;BME280;7840;42.702;23.296;2022-11-20T03:54:28;94346.44;;;17.80;78.58
15477;BME280;7840;42.702;23.296;2022-11-20T03:56:56;94374.59;;;17.77;79.60
15477;BME280;7840;42.702;23.296;2022-11-20T03:59:24;94370.44;;;17.93;75.85
15477;BME280;7840;42.702;23.296;2022-11-20T04:01:54;94366.03;;;17.97;74.97
15477;BME280;7840;42.702;23.296;2022-11-20T04:04:36;94374.59;;;18.08;73.03
15477;BME280;7840;42.702;23.296;2022-11-20T04:07:05;94385.81;;;18.19;72.98
15477;BME280;7840;42.702;23.296;2022-11-20T04:09:33;94402.97;;;18.18;73.38
15477;BME280;7840;42.702;23.296;2022-11-20T04:12:13;94378.84;;;18.18;72.82
15477;BME280;7840;42.702;23.296;2022-11-20T04:14:45;94354.44;;;18.19;73.64
15477;BME280;7840;42.702;23.296;2022-11-20T04:17:17;94357.41;;;18.18;74.21
15477;BME280;7840;42.702;23.296;2022-11-20T04:19:46;94353.78;;;18.05;74.22
15477;BME280;7840;42.702;23.296;2022-11-20T04:22:17;94356.41;;;17.96;74.89
15477;BME280;7840;42.702;23.296;2022-11-20T04:24:45;94366.31;;;17.87;74.76
15477;BME280;7840;42.702;23.296;2022-11-20T04:27:15;94362.88;;;17.95;74.62
15477;BME280;7840;42.702;23.296;2022-11-20T04:29:43;94348.53;;;17.91;74.73
15477;BME280;7840;42.702;23.296;2022-11-20T04:32:14;94379.06;;;17.90;74.23
15477;BME280;7840;42.702;23.296;2022-11-20T04:34:44;94375.31;;;17.91;73.11
15477;BME280;7840;42.702;23.296;2022-11-20T04:37:11;94385.84;;;17.88;73.42
15477;BME280;7840;42.702;23.296;2022-11-20T04:39:39;94377.03;;;17.87;73.33
15477;BME280;7840;42.702;23.296;2022-11-20T04:42:09;94362.06;;;17.86;73.65
15477;BME280;7840;42.702;23.296;2022-11-20T04:44:54;94353.38;;;17.89;74.17
15477;BME280;7840;42.702;23.296;2022-11-20T04:47:23;94359.06;;;17.88;74.63
15477;BME280;7840;42.702;23.296;2022-11-20T04:49:52;94366.31;;;17.87;75.03
15477;BME280;7840;42.702;23.296;2022-11-20T04:52:23;94354.16;;;17.81;74.87
15477;BME280;7840;42.702;23.296;2022-11-20T04:54:54;94354.28;;;17.76;75.89
15477;BME280;7840;42.702;23.296;2022-11-20T04:57:24;94368.00;;;17.83;75.23
15477;BME280;7840;42.702;23.296;2022-11-20T04:59:55;94338.06;;;17.81;75.00
15477;BME280;7840;42.702;23.296;2022-11-20T05:02:25;94327.28;;;17.64;76.22
15477;BME280;7840;42.702;23.296;2022-11-20T05:04:54;94323.97;;;17.67;76.52
15477;BME280;7840;42.702;23.296;2022-11-20T05:07:22;94329.78;;;17.69;76.34
15477;BME280;7840;42.702;23.296;2022-11-20T05:09:50;94322.81;;;17.50;77.18
15477;BME280;7840;42.702;23.296;2022-11-20T05:12:19;94322.97;;;17.54;75.75
15477;BME280;7840;42.702;23.296;2022-11-20T05:14:47;94312.09;;;17.50;76.06
15477;BME280;7840;42.702;23.296;2022-11-20T05:17:17;94325.66;;;17.63;75.31
15477;BME280;7840;42.702;23.296;2022-11-20T05:19:47;94334.22;;;17.65;75.97
15477;BME280;7840;42.702;23.296;2022-11-20T05:22:16;94327.34;;;17.72;75.38
15477;BME280;7840;42.702;23.296;2022-11-20T05:24:44;94323.50;;;17.65;76.02
15477;BME280;7840;42.702;23.296;2022-11-20T05:27:13;94332.00;;;17.67;75.79
15477;BME280;7840;42.702;23.296;2022-11-20T05:29:41;94312.44;;;17.58;76.54
15477;BME280;7840;42.702;23.296;2022-11-20T05:32:09;94315.59;;;17.60;76.91
15477;BME280;7840;42.702;23.296;2022-11-20T05:34:36;94330.09;;;17.59;77.27
15477;BME280;7840;42.702;23.296;2022-11-20T05:37:04;94334.81;;;17.62;76.40
15477;BME280;7840;42.702;23.296;2022-11-20T05:39:33;94336.22;;;17.59;76.81
15477;BME280;7840;42.702;23.296;2022-11-20T05:42:01;94341.13;;;17.66;76.38
15477;BME280;7840;42.702;23.296;2022-11-20T05:44:46;94334.13;;;17.47;76.91
15477;BME280;7840;42.702;23.296;2022-11-20T05:47:14;94339.66;;;17.51;76.76
15477;BME280;7840;42.702;23.296;2022-11-20T05:49:43;94345.16;;;17.55;77.18
15477;BME280;7840;42.702;23.296;2022-11-20T05:52:11;94354.06;;;17.64;77.31
15477;BME280;7840;42.702;23.296;2022-11-20T05:54:40;94334.91;;;17.48;79.62
15477;BME280;7840;42.702;23.296;2022-11-20T05:57:07;94335.53;;;17.45;83.16
15477;BME280;7840;42.702;23.296;2022-11-20T05:59:35;94340.69;;;17.41;84.46
15477;BME280;7840;42.702;23.296;2022-11-20T06:02:03;94350.97;;;17.17;87.38
15477;BME280;7840;42.702;23.296;2022-11-20T06:04:31;94362.03;;;17.24;86.49
15477;BME280;7840;42.702;23.296;2022-11-20T06:06:58;94356.66;;;17.24;86.70
15477;BME280;7840;42.702;23.296;2022-11-20T06:09:26;94371.56;;;17.16;88.65
15477;BME280;7840;42.702;23.296;2022-11-20T06:11:55;94359.31;;;17.02;90.23
15477;BME280;7840;42.702;23.296;2022-11-20T06:14:23;94353.13;;;17.15;90.19
15477;BME280;7840;42.702;23.296;2022-11-20T06:16:51;94351.19;;;17.07;91.39
15477;BME280;7840;42.702;23.296;2022-11-20T06:19:18;94344.25;;;17.06;91.17
15477;BME280;7840;42.702;23.296;2022-11-20T06:21:48;94349.25;;;16.99;91.56
15477;BME280;7840;42.702;23.296;2022-11-20T06:24:29;94351.81;;;17.04;92.03
15477;BME280;7840;42.702;23.296;2022-11-20T06:27:09;94342.69;;;17.05;91.24
15477;BME280;7840;42.702;23.296;2022-11-20T06:29:38;94349.38;;;17.16;90.41
15477;BME280;7840;42.702;23.296;2022-11-20T06:32:06;94364.56;;;17.29;89.51
15477;BME280;7840;42.702;23.296;2022-11-20T06:34:34;94360.66;;;17.35;88.51
15477;BME280;7840;42.702;23.296;2022-11-20T06:37:01;94349.91;;;17.27;88.09
15477;BME280;7840;42.702;23.296;2022-11-20T06:39:29;94356.75;;;17.41;87.95
15477;BME280;7840;42.702;23.296;2022-11-20T06:41:59;94373.81;;;17.45;88.13
15477;BME280;7840;42.702;23.296;2022-11-20T06:44:27;94373.81;;;17.45;86.86
15477;BME280;7840;42.702;23.296;2022-11-20T06:46:55;94381.72;;;17.50;85.86
15477;BME280;7840;42.702;23.296;2022-11-20T06:49:23;94378.28;;;17.59;86.42
15477;BME280;7840;42.702;23.296;2022-11-20T06:51:54;94379.59;;;17.70;86.47
15477;BME280;7840;42.702;23.296;2022-11-20T06:54:38;94385.09;;;17.65;83.54
15477;BME280;7840;42.702;23.296;2022-11-20T06:57:24;94382.50;;;17.82;82.86
15477;BME280;7840;42.702;23.296;2022-11-20T06:59:56;94370.13;;;17.95;81.60
15477;BME280;7840;42.702;23.296;2022-11-20T07:02:26;94359.94;;;18.06;81.23
15477;BME280;7840;42.702;23.296;2022-11-20T07:04:53;94385.13;;;18.04;80.41
15477;BME280;7840;42.702;23.296;2022-11-20T07:07:21;94404.19;;;18.03;80.20
15477;BME280;7840;42.702;23.296;2022-11-20T07:09:49;94410.00;;;17.96;80.93
15477;BME280;7840;42.702;23.296;2022-11-20T07:12:18;94395.56;;;17.75;81.92
15477;BME280;7840;42.702;23.296;2022-11-20T07:14:46;94394.81;;;17.83;82.34
15477;BME280;7840;42.702;23.296;2022-11-20T07:17:16;94411.09;;;17.95;81.38
15477;BME280;7840;42.702;23.296;2022-11-20T07:19:48;94410.97;;;18.00;80.30
15477;BME280;7840;42.702;23.296;2022-11-20T07:22:18;94409.41;;;17.99;80.51
15477;BME280;7840;42.702;23.296;2022-11-20T07:24:47;94404.94;;;17.86;81.22
15477;BME280;7840;42.702;23.296;2022-11-20T07:27:16;94393.28;;;17.68;80.17
15477;BME280;7840;42.702;23.296;2022-11-20T07:29:45;94407.78;;;17.67;81.31
15477;BME280;7840;42.702;23.296;2022-11-20T07:32:13;94411.88;;;17.65;81.59
15477;BME280;7840;42.702;23.296;2022-11-20T07:34:40;94411.53;;;17.58;81.05
15477;BME280;7840;42.702;23.296;2022-11-20T07:37:09;94409.59;;;17.72;80.46
15477;BME280;7840;42.702;23.296;2022-11-20T07:40:00;94404.22;;;17.72;79.94
15477;BME280;7840;42.702;23.296;2022-11-20T07:42:30;94408.63;;;17.76;80.93
15477;BME280;7840;42.702;23.296;2022-11-20T07:45:09;94408.25;;;17.69;82.01
15477;BME280;7840;42.702;23.296;2022-11-20T07:47:47;94403.34;;;17.85;82.00
15477;BME280;7840;42.702;23.296;2022-11-20T07:50:17;94396.91;;;17.64;81.90
15477;BME280;7840;42.702;23.296;2022-11-20T07:53:02;94394.88;;;17.38;83.12
15477;BME280;7840;42.702;23.296;2022-11-20T07:55:48;94404.00;;;17.37;83.37
15477;BME280;7840;42.702;23.296;2022-11-20T07:58:18;94394.88;;;17.38;84.09
15477;BME280;7840;42.702;23.296;2022-11-20T08:00:48;94400.31;;;17.56;84.35
15477;BME280;7840;42.702;23.296;2022-11-20T08:03:35;94412.34;;;17.67;83.17
15477;BME280;7840;42.702;23.296;2022-11-20T08:06:05;94418.88;;;17.74;81.46
15477;BME280;7840;42.702;23.296;2022-11-20T08:08:33;94419.66;;;17.75;81.89
15477;BME280;7840;42.702;23.296;2022-11-20T08:11:09;94402.50;;;17.76;80.98
15477;BME280;7840;42.702;23.296;2022-11-20T08:14:01;94393.56;;;17.89;79.77
15477;BME280;7840;42.702;23.296;2022-11-20T08:16:42;94402.72;;;17.88;80.08
15477;BME280;7840;42.702;23.296;2022-11-20T08:19:27;94412.09;;;17.77;80.22
15477;BME280;7840;42.702;23.296;2022-11-20T08:21:59;94403.28;;;17.54;81.02
15477;BME280;7840;42.702;23.296;2022-11-20T08:24:46;94404.19;;;17.49;83.44
15477;BME280;7840;42.702;23.296;2022-11-20T08:27:17;94408.22;;;17.61;82.97
15477;BME280;7840;42.702;23.296;2022-11-20T08:29:45;94417.09;;;17.70;82.22
15477;BME280;7840;42.702;23.296;2022-11-20T08:32:14;94419.66;;;17.75;79.02
15477;BME280;7840;42.702;23.296;2022-11-20T08:35:01;94413.09;;;17.81;79.41
15477;BME280;7840;42.702;23.296;2022-11-20T08:37:45;94417.44;;;17.99;79.51
15477;BME280;7840;42.702;23.296;2022-11-20T08:40:13;94423.50;;;18.22;79.01
15477;BME280;7840;42.702;23.296;2022-11-20T08:42:50;94417.03;;;18.15;79.67
15477;BME280;7840;42.702;23.296;2022-11-20T08:45:53;94447.16;;;18.20;78.36
15477;BME280;7840;42.702;23.296;2022-11-20T08:48:23;94458.09;;;18.01;82.74
15477;BME280;7840;42.702;23.296;2022-11-20T08:50:51;94450.94;;;17.88;88.29
15477;BME280;7840;42.702;23.296;2022-11-20T08:53:18;94448.28;;;17.66;98.46
15477;BME280;7840;42.702;23.296;2022-11-20T08:55:49;94452.25;;;17.23;100.00
15477;BME280;7840;42.702;23.296;2022-11-20T08:58:16;94441.31;;;16.98;100.00
15477;BME280;7840;42.702;23.296;2022-11-20T09:00:44;94428.91;;;17.02;100.00
15477;BME280;7840;42.702;23.296;2022-11-20T09:03:14;94439.44;;;16.98;100.00
15477;BME280;7840;42.702;23.296;2022-11-20T09:05:41;94444.84;;;17.07;100.00
15477;BME280;7840;42.702;23.296;2022-11-20T09:08:09;94455.28;;;16.94;100.00
15477;BME280;7840;42.702;23.296;2022-11-20T09:10:37;94455.16;;;17.00;100.00
15477;BME280;7840;42.702;23.296;2022-11-20T09:13:06;94451.91;;;17.03;100.00
15477;BME280;7840;42.702;23.296;2022-11-20T09:15:34;94468.41;;;16.82;100.00
15477;BME280;7840;42.702;23.296;2022-11-20T09:18:03;94470.38;;;16.49;100.00
15477;BME280;7840;42.702;23.296;2022-11-20T09:20:35;94468.59;;;16.31;100.00
15477;BME280;7840;42.702;23.296;2022-11-20T09:23:03;94461.06;;;16.19;100.00
15477;BME280;7840;42.702;23.296;2022-11-20T09:25:30;94465.50;;;16.10;100.00
15477;BME280;7840;42.702;23.296;2022-11-20T09:28:11;94424.81;;;15.72;100.00
15477;BME280;7840;42.702;23.296;2022-11-20T09:30:39;94444.38;;;15.67;100.00
15477;BME280;7840;42.702;23.296;2022-11-20T09:33:06;94445.97;;;15.68;100.00
15477;BME280;7840;42.702;23.296;2022-11-20T09:35:39;94428.78;;;15.74;100.00
15477;BME280;7840;42.702;23.296;2022-11-20T09:38:07;94419.69;;;15.75;100.00
15477;BME280;7840;42.702;23.296;2022-11-20T09:41:29;94410.88;;;15.89;100.00
15477;BME280;7840;42.702;23.296;2022-11-20T09:44:05;94402.50;;;16.09;100.00
15477;BME280;7840;42.702;23.296;2022-11-20T09:46:43;94395.94;;;16.42;100.00
15477;BME280;7840;42.702;23.296;2022-11-20T09:49:36;94386.00;;;16.57;100.00
15477;BME280;7840;42.702;23.296;2022-11-20T09:52:28;94397.09;;;16.64;100.00
15477;BME280;7840;42.702;23.296;2022-11-20T09:55:02;94383.72;;;16.64;100.00
15477;BME280;7840;42.702;23.296;2022-11-20T09:57:37;94376.78;;;16.99;100.00
15477;BME280;7840;42.702;23.296;2022-11-20T10:00:11;94365.88;;;17.40;100.00
15477;BME280;7840;42.702;23.296;2022-11-20T10:02:44;94375.22;;;17.74;100.00
15477;BME280;7840;42.702;23.296;2022-11-20T10:05:18;94376.03;;;18.23;100.00
15477;BME280;7840;42.702;23.296;2022-11-20T10:07:51;94367.59;;;18.55;100.00
15477;BME280;7840;42.702;23.296;2022-11-20T10:10:31;94377.69;;;18.41;100.00
15477;BME280;7840;42.702;23.296;2022-11-20T10:13:38;94372.78;;;18.35;100.00
15477;BME280;7840;42.702;23.296;2022-11-20T10:16:18;94353.94;;;18.74;100.00
15477;BME280;7840;42.702;23.296;2022-11-20T10:19:16;94359.97;;;18.23;100.00
15477;BME280;7840;42.702;23.296;2022-11-20T10:21:56;94365.81;;;17.54;100.00
15477;BME280;7840;42.702;23.296;2022-11-20T10:24:52;94371.06;;;16.92;100.00
15477;BME280;7840;42.702;23.296;2022-11-20T10:27:34;94363.56;;;16.80;100.00
15477;BME280;7840;42.702;23.296;2022-11-20T10:30:20;94382.66;;;16.87;100.00
15477;BME280;7840;42.702;23.296;2022-11-20T10:33:05;94390.09;;;16.90;100.00
15477;BME280;7840;42.702;23.296;2022-11-20T10:35:36;94380.16;;;17.05;100.00
15477;BME280;7840;42.702;23.296;2022-11-20T10:38:12;94383.78;;;16.86;100.00
15477;BME280;7840;42.702;23.296;2022-11-20T10:41:19;94384.63;;;16.46;100.00
15477;BME280;7840;42.702;23.296;2022-11-20T10:43:58;94386.06;;;16.29;100.00
15477;BME280;7840;42.702;23.296;2022-11-20T10:46:37;94397.31;;;16.12;100.00
15477;BME280;7840;42.702;23.296;2022-11-20T10:49:13;94380.50;;;16.12;100.00
15477;BME280;7840;42.702;23.296;2022-11-20T10:51:49;94354.88;;;16.11;100.00
15477;BME280;7840;42.702;23.296;2022-11-20T10:54:27;94369.81;;;16.12;100.00
15477;BME280;7840;42.702;23.296;2022-11-20T10:57:07;94384.47;;;16.28;100.00
15477;BME280;7840;42.702;23.296;2022-11-20T11:00:00;94388.91;;;16.05;100.00
15477;BME280;7840;42.702;23.296;2022-11-20T11:02:39;94395.09;;;15.59;100.00
15477;BME280;7840;42.702;23.296;2022-11-20T11:05:18;94433.75;;;15.29;100.00
15477;BME280;7840;42.702;23.296;2022-11-20T11:07:52;94487.63;;;14.94;100.00
15477;BME280;7840;42.702;23.296;2022-11-20T11:10:26;94481.94;;;13.86;100.00
15477;BME280;7840;42.702;23.296;2022-11-20T11:13:02;94448.56;;;13.40;100.00
15477;BME280;7840;42.702;23.296;2022-11-20T11:15:36;94427.59;;;13.34;100.00
15477;BME280;7840;42.702;23.296;2022-11-20T11:18:05;94416.31;;;13.47;100.00
15477;BME280;7840;42.702;23.296;2022-11-20T11:20:35;94415.50;;;13.47;100.00
15477;BME280;7840;42.702;23.296;2022-11-20T11:23:28;94426.84;;;13.57;100.00
15477;BME280;7840;42.702;23.296;2022-11-20T11:25:58;94414.06;;;13.59;100.00
15477;BME280;7840;42.702;23.296;2022-11-20T11:28:28;94417.78;;;13.58;100.00
15477;BME280;7840;42.702;23.296;2022-11-20T11:30:56;94393.09;;;13.53;100.00
15477;BME280;7840;42.702;23.296;2022-11-20T11:33:25;94382.84;;;13.41;100.00
15477;BME280;7840;42.702;23.296;2022-11-20T11:35:55;94385.97;;;13.48;100.00
15477;BME280;7840;42.702;23.296;2022-11-20T11:38:29;94379.53;;;13.54;100.00
15477;BME280;7840;42.702;23.296;2022-11-20T11:40:58;94385.38;;;13.51;100.00
15477;BME280;7840;42.702;23.296;2022-11-20T11:43:30;94396.72;;;13.62;100.00
15477;BME280;7840;42.702;23.296;2022-11-20T11:46:30;94412.25;;;13.79;100.00
15477;BME280;7840;42.702;23.296;2022-11-20T11:48:59;94394.03;;;13.91;100.00
15477;BME280;7840;42.702;23.296;2022-11-20T11:51:45;94399.00;;;13.98;100.00
15477;BME280;7840;42.702;23.296;2022-11-20T11:54:24;94405.03;;;14.08;100.00
15477;BME280;7840;42.702;23.296;2022-11-20T11:56:53;94388.25;;;14.27;100.00
15477;BME280;7840;42.702;23.296;2022-11-20T11:59:29;94395.13;;;14.33;100.00
15477;BME280;7840;42.702;23.296;2022-11-20T12:02:22;94418.47;;;14.41;100.00
15477;BME280;7840;42.702;23.296;2022-11-20T12:04:56;94418.47;;;14.41;100.00
15477;BME280;7840;42.702;23.296;2022-11-20T12:07:35;94430.50;;;14.38;100.00
15477;BME280;7840;42.702;23.296;2022-11-20T12:10:13;94405.91;;;14.46;100.00
15477;BME280;7840;42.702;23.296;2022-11-20T12:12:44;94398.28;;;14.59;100.00
15477;BME280;7840;42.702;23.296;2022-11-20T12:15:21;94398.56;;;14.57;100.00
15477;BME280;7840;42.702;23.296;2022-11-20T12:17:50;94414.50;;;14.62;100.00
15477;BME280;7840;42.702;23.296;2022-11-20T12:20:18;94400.28;;;14.67;100.00
15477;BME280;7840;42.702;23.296;2022-11-20T12:22:52;94406.78;;;14.80;100.00
15477;BME280;7840;42.702;23.296;2022-11-20T12:25:25;94399.13;;;14.73;100.00
15477;BME280;7840;42.702;23.296;2022-11-20T12:28:17;94404.13;;;14.80;100.00
15477;BME280;7840;42.702;23.296;2022-11-20T12:31:02;94414.56;;;14.57;100.00
15477;BME280;7840;42.702;23.296;2022-11-20T12:33:56;94413.25;;;14.55;100.00
15477;BME280;7840;42.702;23.296;2022-11-20T12:36:32;94387.19;;;14.52;100.00
15477;BME280;7840;42.702;23.296;2022-11-20T12:39:31;94365.06;;;14.51;100.00
15477;BME280;7840;42.702;23.296;2022-11-20T12:42:25;94359.75;;;14.51;100.00
15477;BME280;7840;42.702;23.296;2022-11-20T12:45:40;94349.09;;;14.51;100.00
15477;BME280;7840;42.702;23.296;2022-11-20T12:48:43;94360.34;;;14.48;100.00
15477;BME280;7840;42.702;23.296;2022-11-20T12:51:36;94351.06;;;14.21;100.00
15477;BME280;7840;42.702;23.296;2022-11-20T12:57:21;94343.25;;;14.06;100.00
15477;BME280;7840;42.702;23.296;2022-11-20T13:00:08;94347.91;;;13.72;100.00
15477;BME280;7840;42.702;23.296;2022-11-20T13:02:52;94345.84;;;13.68;100.00
15477;BME280;7840;42.702;23.296;2022-11-20T13:05:28;94337.44;;;13.56;100.00
15477;BME280;7840;42.702;23.296;2022-11-20T13:08:02;94329.69;;;13.36;100.00
15477;BME280;7840;42.702;23.296;2022-11-20T13:10:45;94338.84;;;13.25;100.00
15477;BME280;7840;42.702;23.296;2022-11-20T13:13:35;94340.03;;;13.37;100.00
15477;BME280;7840;42.702;23.296;2022-11-20T13:16:27;94350.09;;;13.11;100.00
15477;BME280;7840;42.702;23.296;2022-11-20T13:19:02;94364.97;;;13.12;100.00
15477;BME280;7840;42.702;23.296;2022-11-20T13:21:38;94373.19;;;13.16;100.00
15477;BME280;7840;42.702;23.296;2022-11-20T13:24:26;94361.84;;;13.05;100.00
15477;BME280;7840;42.702;23.296;2022-11-20T13:27:17;94357.09;;;13.02;100.00
15477;BME280;7840;42.702;23.296;2022-11-20T13:30:10;94342.56;;;12.90;100.00
15477;BME280;7840;42.702;23.296;2022-11-20T13:32:49;94352.88;;;12.96;100.00
15477;BME280;7840;42.702;23.296;2022-11-20T13:35:29;94341.13;;;13.02;100.00
15477;BME280;7840;42.702;23.296;2022-11-20T13:38:04;94346.38;;;13.12;100.00